sensor_id;sensor_type;location;lat;lon;timestamp;P1;durP1;ratioP1;P2;durP2;ratioP2
35110;SDS011;21290;50.158;8.658;2023-11-19T00:02:13;27.20;;;15.02;;
35110;SDS011;21290;50.158;8.658;2023-11-19T00:04:40;24.30;;;14.98;;
35110;SDS011;21290;50.158;8.658;2023-11-19T00:07:07;20.90;;;13.52;;
35110;SDS011;21290;50.158;8.658;2023-11-19T00:09:36;20.27;;;13.40;;
35110;SDS011;21290;50.158;8.658;2023-11-19T00:12:04;22.30;;;14.70;;
35110;SDS011;21290;50.158;8.658;2023-11-19T00:14:31;20.70;;;15.32;;
35110;SDS011;21290;50.158;8.658;2023-11-19T00:16:58;21.08;;;14.18;;
35110;SDS011;21290;50.158;8.658;2023-11-19T00:19:25;20.05;;;13.95;;
35110;SDS011;21290;50.158;8.658;2023-11-19T00:21:52;19.00;;;13.82;;
35110;SDS011;21290;50.158;8.658;2023-11-19T00:24:19;20.08;;;12.95;;
35110;SDS011;21290;50.158;8.658;2023-11-19T00:26:46;22.30;;;13.85;;
35110;SDS011;21290;50.158;8.658;2023-11-19T00:29:13;21.88;;;14.05;;
35110;SDS011;21290;50.158;8.658;2023-11-19T00:31:40;19.13;;;14.27;;
35110;SDS011;21290;50.158;8.658;2023-11-19T00:34:06;21.98;;;15.23;;
35110;SDS011;21290;50.158;8.658;2023-11-19T00:36:33;21.80;;;15.25;;
35110;SDS011;21290;50.158;8.658;2023-11-19T00:39:00;23.45;;;15.35;;
35110;SDS011;21290;50.158;8.658;2023-11-19T00:41:26;22.20;;;15.35;;
35110;SDS011;21290;50.158;8.658;2023-11-19T00:43:53;24.15;;;16.33;;
35110;SDS011;21290;50.158;8.658;2023-11-19T00:46:20;25.20;;;15.63;;
35110;SDS011;21290;50.158;8.658;2023-11-19T00:48:46;27.95;;;15.70;;
35110;SDS011;21290;50.158;8.658;2023-11-19T00:51:13;25.50;;;16.75;;
35110;SDS011;21290;50.158;8.658;2023-11-19T00:53:40;26.17;;;16.15;;
35110;SDS011;21290;50.158;8.658;2023-11-19T00:56:07;27.95;;;16.40;;
35110;SDS011;21290;50.158;8.658;2023-11-19T00:58:34;22.42;;;15.50;;
35110;SDS011;21290;50.158;8.658;2023-11-19T01:01:00;23.45;;;17.05;;
35110;SDS011;21290;50.158;8.658;2023-11-19T01:03:27;25.65;;;16.13;;
35110;SDS011;21290;50.158;8.658;2023-11-19T01:05:54;29.10;;;16.77;;
35110;SDS011;21290;50.158;8.658;2023-11-19T01:08:21;26.27;;;17.77;;
35110;SDS011;21290;50.158;8.658;2023-11-19T01:10:47;24.20;;;16.92;;
35110;SDS011;21290;50.158;8.658;2023-11-19T01:13:14;31.80;;;18.00;;
35110;SDS011;21290;50.158;8.658;2023-11-19T01:15:41;28.15;;;17.38;;
35110;SDS011;21290;50.158;8.658;2023-11-19T01:18:07;28.92;;;17.65;;
35110;SDS011;21290;50.158;8.658;2023-11-19T01:20:36;25.77;;;17.45;;
35110;SDS011;21290;50.158;8.658;2023-11-19T01:23:03;29.73;;;18.05;;
35110;SDS011;21290;50.158;8.658;2023-11-19T01:25:30;28.65;;;16.70;;
35110;SDS011;21290;50.158;8.658;2023-11-19T01:27:56;21.75;;;16.38;;
35110;SDS011;21290;50.158;8.658;2023-11-19T01:30:24;25.48;;;16.95;;
35110;SDS011;21290;50.158;8.658;2023-11-19T01:32:51;29.63;;;17.20;;
35110;SDS011;21290;50.158;8.658;2023-11-19T01:35:18;26.85;;;17.42;;
35110;SDS011;21290;50.158;8.658;2023-11-19T01:37:45;24.00;;;16.25;;
35110;SDS011;21290;50.158;8.658;2023-11-19T01:40:12;26.75;;;17.17;;
35110;SDS011;21290;50.158;8.658;2023-11-19T01:42:39;23.02;;;16.10;;
35110;SDS011;21290;50.158;8.658;2023-11-19T01:45:07;22.52;;;15.48;;
35110;SDS011;21290;50.158;8.658;2023-11-19T01:47:35;22.08;;;16.40;;
35110;SDS011;21290;50.158;8.658;2023-11-19T01:50:03;23.25;;;15.77;;
35110;SDS011;21290;50.158;8.658;2023-11-19T01:52:34;24.35;;;16.58;;
35110;SDS011;21290;50.158;8.658;2023-11-19T01:55:03;21.13;;;15.07;;
35110;SDS011;21290;50.158;8.658;2023-11-19T01:57:30;25.48;;;16.85;;
35110;SDS011;21290;50.158;8.658;2023-11-19T01:59:57;23.52;;;15.43;;
35110;SDS011;21290;50.158;8.658;2023-11-19T02:02:24;21.73;;;15.30;;
35110;SDS011;21290;50.158;8.658;2023-11-19T02:04:52;22.80;;;15.50;;
35110;SDS011;21290;50.158;8.658;2023-11-19T02:07:19;22.40;;;14.93;;
35110;SDS011;21290;50.158;8.658;2023-11-19T02:09:47;22.17;;;14.85;;
35110;SDS011;21290;50.158;8.658;2023-11-19T02:12:13;20.20;;;15.05;;
35110;SDS011;21290;50.158;8.658;2023-11-19T02:14:41;22.73;;;15.70;;
35110;SDS011;21290;50.158;8.658;2023-11-19T02:17:08;20.85;;;15.45;;
35110;SDS011;21290;50.158;8.658;2023-11-19T02:19:58;23.08;;;15.18;;
35110;SDS011;21290;50.158;8.658;2023-11-19T02:22:24;22.17;;;15.98;;
35110;SDS011;21290;50.158;8.658;2023-11-19T02:24:51;22.00;;;15.32;;
35110;SDS011;21290;50.158;8.658;2023-11-19T02:27:31;22.77;;;15.30;;
35110;SDS011;21290;50.158;8.658;2023-11-19T02:30:14;21.67;;;15.15;;
35110;SDS011;21290;50.158;8.658;2023-11-19T02:32:41;20.92;;;15.85;;
35110;SDS011;21290;50.158;8.658;2023-11-19T02:35:08;25.63;;;15.10;;
35110;SDS011;21290;50.158;8.658;2023-11-19T02:37:35;25.55;;;14.88;;
35110;SDS011;21290;50.158;8.658;2023-11-19T02:40:02;17.85;;;14.88;;
35110;SDS011;21290;50.158;8.658;2023-11-19T02:42:30;19.60;;;14.50;;
35110;SDS011;21290;50.158;8.658;2023-11-19T02:44:57;19.33;;;14.02;;
35110;SDS011;21290;50.158;8.658;2023-11-19T02:47:24;20.27;;;14.85;;
35110;SDS011;21290;50.158;8.658;2023-11-19T02:49:50;19.73;;;13.98;;
35110;SDS011;21290;50.158;8.658;2023-11-19T02:52:19;20.90;;;13.90;;
35110;SDS011;21290;50.158;8.658;2023-11-19T02:54:45;19.80;;;13.40;;
35110;SDS011;21290;50.158;8.658;2023-11-19T02:57:12;18.10;;;13.43;;
35110;SDS011;21290;50.158;8.658;2023-11-19T02:59:47;21.23;;;13.45;;
35110;SDS011;21290;50.158;8.658;2023-11-19T03:02:15;16.75;;;12.55;;
35110;SDS011;21290;50.158;8.658;2023-11-19T03:04:44;19.23;;;13.18;;
35110;SDS011;21290;50.158;8.658;2023-11-19T03:07:12;19.83;;;12.32;;
35110;SDS011;21290;50.158;8.658;2023-11-19T03:09:39;17.80;;;11.25;;
35110;SDS011;21290;50.158;8.658;2023-11-19T03:12:07;18.88;;;11.55;;
35110;SDS011;21290;50.158;8.658;2023-11-19T03:14:34;14.43;;;10.80;;
35110;SDS011;21290;50.158;8.658;2023-11-19T03:17:01;16.42;;;11.63;;
35110;SDS011;21290;50.158;8.658;2023-11-19T03:19:28;15.48;;;10.88;;
35110;SDS011;21290;50.158;8.658;2023-11-19T03:21:55;16.10;;;10.80;;
35110;SDS011;21290;50.158;8.658;2023-11-19T03:24:21;15.20;;;10.73;;
35110;SDS011;21290;50.158;8.658;2023-11-19T03:26:49;14.07;;;10.10;;
35110;SDS011;21290;50.158;8.658;2023-11-19T03:29:18;13.32;;;10.45;;
35110;SDS011;21290;50.158;8.658;2023-11-19T03:31:45;15.38;;;10.50;;
35110;SDS011;21290;50.158;8.658;2023-11-19T03:34:11;13.23;;;10.10;;
35110;SDS011;21290;50.158;8.658;2023-11-19T03:36:38;13.32;;;10.13;;
35110;SDS011;21290;50.158;8.658;2023-11-19T03:39:05;18.02;;;11.20;;
35110;SDS011;21290;50.158;8.658;2023-11-19T03:41:32;15.27;;;11.00;;
35110;SDS011;21290;50.158;8.658;2023-11-19T03:44:02;15.27;;;10.73;;
35110;SDS011;21290;50.158;8.658;2023-11-19T03:46:29;17.00;;;11.25;;
35110;SDS011;21290;50.158;8.658;2023-11-19T03:48:56;14.77;;;11.23;;
35110;SDS011;21290;50.158;8.658;2023-11-19T03:51:23;15.32;;;10.93;;
35110;SDS011;21290;50.158;8.658;2023-11-19T03:53:50;14.95;;;11.20;;
35110;SDS011;21290;50.158;8.658;2023-11-19T03:56:16;16.90;;;11.00;;
35110;SDS011;21290;50.158;8.658;2023-11-19T03:58:43;15.63;;;11.48;;
35110;SDS011;21290;50.158;8.658;2023-11-19T04:01:12;18.52;;;11.95;;
35110;SDS011;21290;50.158;8.658;2023-11-19T04:03:40;19.25;;;12.13;;
35110;SDS011;21290;50.158;8.658;2023-11-19T04:06:16;16.00;;;11.77;;
35110;SDS011;21290;50.158;8.658;2023-11-19T04:08:44;16.20;;;12.55;;
35110;SDS011;21290;50.158;8.658;2023-11-19T04:11:11;16.45;;;12.30;;
35110;SDS011;21290;50.158;8.658;2023-11-19T04:13:38;15.95;;;11.52;;
35110;SDS011;21290;50.158;8.658;2023-11-19T04:16:04;17.55;;;12.63;;
35110;SDS011;21290;50.158;8.658;2023-11-19T04:18:31;18.55;;;11.60;;
35110;SDS011;21290;50.158;8.658;2023-11-19T04:20:58;19.35;;;12.00;;
35110;SDS011;21290;50.158;8.658;2023-11-19T04:23:25;15.32;;;11.90;;
35110;SDS011;21290;50.158;8.658;2023-11-19T04:25:52;14.80;;;11.45;;
35110;SDS011;21290;50.158;8.658;2023-11-19T04:28:18;15.65;;;10.68;;
35110;SDS011;21290;50.158;8.658;2023-11-19T04:30:45;15.18;;;11.32;;
35110;SDS011;21290;50.158;8.658;2023-11-19T04:33:12;15.90;;;11.10;;
35110;SDS011;21290;50.158;8.658;2023-11-19T04:35:38;20.77;;;11.25;;
35110;SDS011;21290;50.158;8.658;2023-11-19T04:38:05;14.40;;;11.30;;
35110;SDS011;21290;50.158;8.658;2023-11-19T04:40:32;12.63;;;9.43;;
35110;SDS011;21290;50.158;8.658;2023-11-19T04:43:00;13.13;;;10.30;;
35110;SDS011;21290;50.158;8.658;2023-11-19T04:45:26;12.07;;;9.23;;
35110;SDS011;21290;50.158;8.658;2023-11-19T04:47:53;12.55;;;9.80;;
35110;SDS011;21290;50.158;8.658;2023-11-19T04:50:20;13.98;;;9.30;;
35110;SDS011;21290;50.158;8.658;2023-11-19T04:52:46;13.40;;;9.20;;
35110;SDS011;21290;50.158;8.658;2023-11-19T04:55:13;13.43;;;9.73;;
35110;SDS011;21290;50.158;8.658;2023-11-19T04:57:41;12.25;;;9.23;;
35110;SDS011;21290;50.158;8.658;2023-11-19T05:00:07;10.25;;;8.35;;
35110;SDS011;21290;50.158;8.658;2023-11-19T05:02:40;11.55;;;8.85;;
35110;SDS011;21290;50.158;8.658;2023-11-19T05:05:07;13.73;;;9.38;;
35110;SDS011;21290;50.158;8.658;2023-11-19T05:07:35;16.17;;;9.20;;
35110;SDS011;21290;50.158;8.658;2023-11-19T05:10:02;12.90;;;9.30;;
35110;SDS011;21290;50.158;8.658;2023-11-19T05:12:29;10.82;;;8.48;;
35110;SDS011;21290;50.158;8.658;2023-11-19T05:14:57;11.68;;;9.23;;
35110;SDS011;21290;50.158;8.658;2023-11-19T05:17:24;14.13;;;8.63;;
35110;SDS011;21290;50.158;8.658;2023-11-19T05:19:51;13.15;;;9.15;;
35110;SDS011;21290;50.158;8.658;2023-11-19T05:22:18;14.75;;;9.70;;
35110;SDS011;21290;50.158;8.658;2023-11-19T05:24:46;11.18;;;9.48;;
35110;SDS011;21290;50.158;8.658;2023-11-19T05:27:14;14.35;;;9.55;;
35110;SDS011;21290;50.158;8.658;2023-11-19T05:29:41;15.77;;;10.48;;
35110;SDS011;21290;50.158;8.658;2023-11-19T05:32:09;17.15;;;9.70;;
35110;SDS011;21290;50.158;8.658;2023-11-19T05:34:36;14.55;;;9.25;;
35110;SDS011;21290;50.158;8.658;2023-11-19T05:37:03;18.63;;;10.32;;
35110;SDS011;21290;50.158;8.658;2023-11-19T05:39:31;13.82;;;9.38;;
35110;SDS011;21290;50.158;8.658;2023-11-19T05:41:58;12.75;;;10.40;;
35110;SDS011;21290;50.158;8.658;2023-11-19T05:44:25;13.70;;;9.65;;
35110;SDS011;21290;50.158;8.658;2023-11-19T05:46:51;14.07;;;10.25;;
35110;SDS011;21290;50.158;8.658;2023-11-19T05:49:18;13.57;;;9.52;;
35110;SDS011;21290;50.158;8.658;2023-11-19T05:51:45;16.15;;;10.20;;
35110;SDS011;21290;50.158;8.658;2023-11-19T05:54:12;12.38;;;9.77;;
35110;SDS011;21290;50.158;8.658;2023-11-19T05:56:39;14.35;;;9.43;;
35110;SDS011;21290;50.158;8.658;2023-11-19T05:59:06;14.13;;;9.90;;
35110;SDS011;21290;50.158;8.658;2023-11-19T06:01:41;13.25;;;9.98;;
35110;SDS011;21290;50.158;8.658;2023-11-19T06:04:08;13.32;;;9.93;;
35110;SDS011;21290;50.158;8.658;2023-11-19T06:06:35;13.13;;;10.27;;
35110;SDS011;21290;50.158;8.658;2023-11-19T06:09:03;19.27;;;10.75;;
35110;SDS011;21290;50.158;8.658;2023-11-19T06:11:33;14.43;;;10.02;;
35110;SDS011;21290;50.158;8.658;2023-11-19T06:14:02;13.77;;;10.57;;
35110;SDS011;21290;50.158;8.658;2023-11-19T06:16:31;13.45;;;9.82;;
35110;SDS011;21290;50.158;8.658;2023-11-19T06:18:58;13.73;;;10.00;;
35110;SDS011;21290;50.158;8.658;2023-11-19T06:21:25;15.07;;;10.73;;
35110;SDS011;21290;50.158;8.658;2023-11-19T06:23:52;13.25;;;10.32;;
35110;SDS011;21290;50.158;8.658;2023-11-19T06:26:19;16.35;;;11.05;;
35110;SDS011;21290;50.158;8.658;2023-11-19T06:28:48;12.30;;;10.18;;
35110;SDS011;21290;50.158;8.658;2023-11-19T06:31:15;13.82;;;9.52;;
35110;SDS011;21290;50.158;8.658;2023-11-19T06:33:42;14.23;;;10.82;;
35110;SDS011;21290;50.158;8.658;2023-11-19T06:36:09;14.70;;;10.02;;
35110;SDS011;21290;50.158;8.658;2023-11-19T06:38:35;13.70;;;9.60;;
35110;SDS011;21290;50.158;8.658;2023-11-19T06:41:05;14.57;;;10.00;;
35110;SDS011;21290;50.158;8.658;2023-11-19T06:43:33;15.93;;;10.23;;
35110;SDS011;21290;50.158;8.658;2023-11-19T06:46:03;12.40;;;9.88;;
35110;SDS011;21290;50.158;8.658;2023-11-19T06:48:32;14.02;;;10.05;;
35110;SDS011;21290;50.158;8.658;2023-11-19T06:50:59;19.90;;;10.85;;
35110;SDS011;21290;50.158;8.658;2023-11-19T06:53:26;12.63;;;10.40;;
35110;SDS011;21290;50.158;8.658;2023-11-19T06:55:54;13.32;;;9.73;;
35110;SDS011;21290;50.158;8.658;2023-11-19T06:58:21;15.82;;;10.70;;
35110;SDS011;21290;50.158;8.658;2023-11-19T07:00:47;14.30;;;10.30;;
35110;SDS011;21290;50.158;8.658;2023-11-19T07:03:15;17.63;;;10.07;;
35110;SDS011;21290;50.158;8.658;2023-11-19T07:05:42;12.80;;;9.48;;
35110;SDS011;21290;50.158;8.658;2023-11-19T07:08:10;13.27;;;9.63;;
35110;SDS011;21290;50.158;8.658;2023-11-19T07:10:37;15.73;;;9.88;;
35110;SDS011;21290;50.158;8.658;2023-11-19T07:13:04;13.38;;;9.90;;
35110;SDS011;21290;50.158;8.658;2023-11-19T07:15:32;17.10;;;10.02;;
35110;SDS011;21290;50.158;8.658;2023-11-19T07:17:59;14.07;;;9.30;;
35110;SDS011;21290;50.158;8.658;2023-11-19T07:20:28;13.02;;;9.10;;
35110;SDS011;21290;50.158;8.658;2023-11-19T07:22:55;13.88;;;9.20;;
35110;SDS011;21290;50.158;8.658;2023-11-19T07:25:23;14.40;;;9.23;;
35110;SDS011;21290;50.158;8.658;2023-11-19T07:27:51;13.63;;;9.38;;
35110;SDS011;21290;50.158;8.658;2023-11-19T07:30:18;12.30;;;9.27;;
35110;SDS011;21290;50.158;8.658;2023-11-19T07:32:45;14.80;;;9.32;;
35110;SDS011;21290;50.158;8.658;2023-11-19T07:35:11;12.48;;;9.32;;
35110;SDS011;21290;50.158;8.658;2023-11-19T07:37:38;13.80;;;9.10;;
35110;SDS011;21290;50.158;8.658;2023-11-19T07:40:05;15.25;;;9.82;;
35110;SDS011;21290;50.158;8.658;2023-11-19T07:42:32;14.85;;;10.32;;
35110;SDS011;21290;50.158;8.658;2023-11-19T07:44:59;16.85;;;11.25;;
35110;SDS011;21290;50.158;8.658;2023-11-19T07:47:26;15.65;;;10.10;;
35110;SDS011;21290;50.158;8.658;2023-11-19T07:49:54;14.60;;;10.17;;
35110;SDS011;21290;50.158;8.658;2023-11-19T07:52:20;15.90;;;10.32;;
35110;SDS011;21290;50.158;8.658;2023-11-19T07:54:47;15.25;;;10.40;;
35110;SDS011;21290;50.158;8.658;2023-11-19T07:57:14;14.20;;;9.95;;
35110;SDS011;21290;50.158;8.658;2023-11-19T07:59:41;17.08;;;10.38;;
35110;SDS011;21290;50.158;8.658;2023-11-19T08:02:08;17.50;;;9.48;;
35110;SDS011;21290;50.158;8.658;2023-11-19T08:04:35;17.40;;;10.80;;
35110;SDS011;21290;50.158;8.658;2023-11-19T08:07:02;17.25;;;10.60;;
35110;SDS011;21290;50.158;8.658;2023-11-19T08:09:29;14.13;;;10.40;;
35110;SDS011;21290;50.158;8.658;2023-11-19T08:11:55;15.13;;;10.88;;
35110;SDS011;21290;50.158;8.658;2023-11-19T08:14:22;15.50;;;10.40;;
35110;SDS011;21290;50.158;8.658;2023-11-19T08:16:50;13.68;;;10.05;;
35110;SDS011;21290;50.158;8.658;2023-11-19T08:19:17;16.60;;;9.50;;
35110;SDS011;21290;50.158;8.658;2023-11-19T08:21:43;12.55;;;9.07;;
35110;SDS011;21290;50.158;8.658;2023-11-19T08:24:10;16.95;;;9.98;;
35110;SDS011;21290;50.158;8.658;2023-11-19T08:26:36;15.38;;;10.40;;
35110;SDS011;21290;50.158;8.658;2023-11-19T08:29:03;15.75;;;10.23;;
35110;SDS011;21290;50.158;8.658;2023-11-19T08:31:30;17.55;;;10.55;;
35110;SDS011;21290;50.158;8.658;2023-11-19T08:33:56;15.77;;;10.82;;
35110;SDS011;21290;50.158;8.658;2023-11-19T08:36:23;19.10;;;10.18;;
35110;SDS011;21290;50.158;8.658;2023-11-19T08:38:50;19.33;;;11.18;;
35110;SDS011;21290;50.158;8.658;2023-11-19T08:41:17;16.48;;;11.10;;
35110;SDS011;21290;50.158;8.658;2023-11-19T08:43:45;14.85;;;10.15;;
35110;SDS011;21290;50.158;8.658;2023-11-19T08:46:12;16.40;;;10.50;;
35110;SDS011;21290;50.158;8.658;2023-11-19T08:48:39;14.70;;;10.05;;
35110;SDS011;21290;50.158;8.658;2023-11-19T08:51:06;24.33;;;10.43;;
35110;SDS011;21290;50.158;8.658;2023-11-19T08:53:33;13.73;;;8.73;;
35110;SDS011;21290;50.158;8.658;2023-11-19T08:55:59;12.85;;;8.90;;
35110;SDS011;21290;50.158;8.658;2023-11-19T08:58:29;12.07;;;9.18;;
35110;SDS011;21290;50.158;8.658;2023-11-19T09:00:56;10.18;;;7.93;;
35110;SDS011;21290;50.158;8.658;2023-11-19T09:03:24;10.63;;;7.93;;
35110;SDS011;21290;50.158;8.658;2023-11-19T09:05:52;11.00;;;6.90;;
35110;SDS011;21290;50.158;8.658;2023-11-19T09:08:19;8.35;;;6.85;;
35110;SDS011;21290;50.158;8.658;2023-11-19T09:10:46;8.82;;;6.72;;
35110;SDS011;21290;50.158;8.658;2023-11-19T09:13:13;6.28;;;5.22;;
35110;SDS011;21290;50.158;8.658;2023-11-19T09:15:40;4.00;;;3.60;;
35110;SDS011;21290;50.158;8.658;2023-11-19T09:18:08;3.13;;;2.83;;
35110;SDS011;21290;50.158;8.658;2023-11-19T09:20:35;5.80;;;2.30;;
35110;SDS011;21290;50.158;8.658;2023-11-19T09:23:05;2.95;;;2.08;;
35110;SDS011;21290;50.158;8.658;2023-11-19T09:25:35;1.88;;;1.75;;
35110;SDS011;21290;50.158;8.658;2023-11-19T09:28:05;2.97;;;1.90;;
35110;SDS011;21290;50.158;8.658;2023-11-19T09:30:32;4.13;;;2.00;;
35110;SDS011;21290;50.158;8.658;2023-11-19T09:32:59;4.65;;;1.50;;
35110;SDS011;21290;50.158;8.658;2023-11-19T09:35:26;2.47;;;1.65;;
35110;SDS011;21290;50.158;8.658;2023-11-19T09:37:53;2.58;;;1.50;;
35110;SDS011;21290;50.158;8.658;2023-11-19T09:40:20;3.42;;;1.60;;
35110;SDS011;21290;50.158;8.658;2023-11-19T09:42:47;3.90;;;1.45;;
35110;SDS011;21290;50.158;8.658;2023-11-19T09:45:15;2.45;;;1.70;;
35110;SDS011;21290;50.158;8.658;2023-11-19T09:47:43;2.25;;;1.10;;
35110;SDS011;21290;50.158;8.658;2023-11-19T09:50:18;3.70;;;1.40;;
35110;SDS011;21290;50.158;8.658;2023-11-19T09:52:46;4.05;;;1.85;;
35110;SDS011;21290;50.158;8.658;2023-11-19T09:55:13;3.42;;;1.33;;
35110;SDS011;21290;50.158;8.658;2023-11-19T09:57:40;6.18;;;1.50;;
35110;SDS011;21290;50.158;8.658;2023-11-19T10:00:10;2.97;;;1.30;;
35110;SDS011;21290;50.158;8.658;2023-11-19T10:02:39;2.50;;;1.38;;
35110;SDS011;21290;50.158;8.658;2023-11-19T10:05:08;3.17;;;1.27;;
35110;SDS011;21290;50.158;8.658;2023-11-19T10:07:36;1.67;;;1.20;;
35110;SDS011;21290;50.158;8.658;2023-11-19T10:10:04;4.18;;;1.75;;
35110;SDS011;21290;50.158;8.658;2023-11-19T10:12:31;3.65;;;2.20;;
35110;SDS011;21290;50.158;8.658;2023-11-19T10:14:57;6.82;;;1.77;;
35110;SDS011;21290;50.158;8.658;2023-11-19T10:17:28;2.63;;;1.60;;
35110;SDS011;21290;50.158;8.658;2023-11-19T10:19:58;3.35;;;1.40;;
35110;SDS011;21290;50.158;8.658;2023-11-19T10:22:25;3.40;;;1.80;;
35110;SDS011;21290;50.158;8.658;2023-11-19T10:24:54;3.15;;;1.30;;
35110;SDS011;21290;50.158;8.658;2023-11-19T10:27:23;4.90;;;1.33;;
35110;SDS011;21290;50.158;8.658;2023-11-19T10:29:51;5.55;;;1.42;;
35110;SDS011;21290;50.158;8.658;2023-11-19T10:32:18;3.47;;;1.50;;
35110;SDS011;21290;50.158;8.658;2023-11-19T10:34:52;3.58;;;1.60;;
35110;SDS011;21290;50.158;8.658;2023-11-19T10:37:30;4.22;;;1.30;;
35110;SDS011;21290;50.158;8.658;2023-11-19T10:39:59;4.57;;;1.67;;
35110;SDS011;21290;50.158;8.658;2023-11-19T10:42:25;5.25;;;1.60;;
35110;SDS011;21290;50.158;8.658;2023-11-19T10:44:52;5.68;;;1.52;;
35110;SDS011;21290;50.158;8.658;2023-11-19T10:47:19;5.22;;;1.70;;
35110;SDS011;21290;50.158;8.658;2023-11-19T10:50:03;6.22;;;1.80;;
35110;SDS011;21290;50.158;8.658;2023-11-19T10:52:31;4.93;;;1.42;;
35110;SDS011;21290;50.158;8.658;2023-11-19T10:54:59;6.35;;;1.90;;
35110;SDS011;21290;50.158;8.658;2023-11-19T10:57:27;9.35;;;1.83;;
35110;SDS011;21290;50.158;8.658;2023-11-19T11:00:00;4.80;;;1.33;;
35110;SDS011;21290;50.158;8.658;2023-11-19T11:02:30;5.68;;;1.70;;
35110;SDS011;21290;50.158;8.658;2023-11-19T11:05:05;11.02;;;2.15;;
35110;SDS011;21290;50.158;8.658;2023-11-19T11:07:34;7.50;;;2.20;;
35110;SDS011;21290;50.158;8.658;2023-11-19T11:10:07;10.00;;;2.65;;
35110;SDS011;21290;50.158;8.658;2023-11-19T11:12:36;6.93;;;2.17;;
35110;SDS011;21290;50.158;8.658;2023-11-19T11:15:08;5.13;;;1.70;;
35110;SDS011;21290;50.158;8.658;2023-11-19T11:17:42;8.48;;;2.38;;
35110;SDS011;21290;50.158;8.658;2023-11-19T11:20:11;8.93;;;2.50;;
35110;SDS011;21290;50.158;8.658;2023-11-19T11:22:44;9.52;;;2.20;;
35110;SDS011;21290;50.158;8.658;2023-11-19T11:25:23;8.73;;;2.42;;
35110;SDS011;21290;50.158;8.658;2023-11-19T11:28:20;8.68;;;2.30;;
35110;SDS011;21290;50.158;8.658;2023-11-19T11:36:58;13.57;;;4.80;;
35110;SDS011;21290;50.158;8.658;2023-11-19T11:39:34;13.50;;;4.93;;
35110;SDS011;21290;50.158;8.658;2023-11-19T11:50:15;11.38;;;3.00;;
35110;SDS011;21290;50.158;8.658;2023-11-19T11:58:05;12.45;;;2.38;;
35110;SDS011;21290;50.158;8.658;2023-11-19T12:00:32;9.15;;;2.15;;
35110;SDS011;21290;50.158;8.658;2023-11-19T12:03:04;13.68;;;3.08;;
35110;SDS011;21290;50.158;8.658;2023-11-19T12:05:38;10.85;;;2.47;;
35110;SDS011;21290;50.158;8.658;2023-11-19T12:08:11;14.18;;;2.75;;
35110;SDS011;21290;50.158;8.658;2023-11-19T12:13:13;12.15;;;2.35;;
35110;SDS011;21290;50.158;8.658;2023-11-19T12:18:32;9.80;;;2.63;;
35110;SDS011;21290;50.158;8.658;2023-11-19T12:20:59;9.85;;;2.40;;
35110;SDS011;21290;50.158;8.658;2023-11-19T12:23:28;8.88;;;2.13;;
35110;SDS011;21290;50.158;8.658;2023-11-19T12:25:56;14.88;;;2.65;;
35110;SDS011;21290;50.158;8.658;2023-11-19T12:28:24;11.52;;;2.88;;
35110;SDS011;21290;50.158;8.658;2023-11-19T12:30:53;11.77;;;2.45;;
35110;SDS011;21290;50.158;8.658;2023-11-19T12:33:20;13.95;;;2.85;;
35110;SDS011;21290;50.158;8.658;2023-11-19T12:35:47;9.52;;;2.28;;
35110;SDS011;21290;50.158;8.658;2023-11-19T12:38:20;9.10;;;1.67;;
35110;SDS011;21290;50.158;8.658;2023-11-19T12:41:02;13.23;;;2.55;;
35110;SDS011;21290;50.158;8.658;2023-11-19T12:43:30;11.75;;;2.50;;
35110;SDS011;21290;50.158;8.658;2023-11-19T12:45:57;10.68;;;2.90;;
35110;SDS011;21290;50.158;8.658;2023-11-19T12:48:24;10.80;;;2.20;;
35110;SDS011;21290;50.158;8.658;2023-11-19T12:50:51;12.38;;;3.50;;
35110;SDS011;21290;50.158;8.658;2023-11-19T12:53:20;8.38;;;1.92;;
35110;SDS011;21290;50.158;8.658;2023-11-19T12:55:47;9.05;;;2.28;;
35110;SDS011;21290;50.158;8.658;2023-11-19T12:58:30;9.98;;;2.63;;
35110;SDS011;21290;50.158;8.658;2023-11-19T13:03:32;8.70;;;1.90;;
35110;SDS011;21290;50.158;8.658;2023-11-19T13:06:10;9.05;;;2.25;;
35110;SDS011;21290;50.158;8.658;2023-11-19T13:08:42;6.38;;;2.03;;
35110;SDS011;21290;50.158;8.658;2023-11-19T13:11:15;8.95;;;2.20;;
35110;SDS011;21290;50.158;8.658;2023-11-19T13:16:23;8.10;;;2.70;;
35110;SDS011;21290;50.158;8.658;2023-11-19T13:18:53;9.88;;;1.95;;
35110;SDS011;21290;50.158;8.658;2023-11-19T13:21:22;11.10;;;2.20;;
35110;SDS011;21290;50.158;8.658;2023-11-19T13:23:49;7.43;;;1.73;;
35110;SDS011;21290;50.158;8.658;2023-11-19T13:26:16;9.43;;;2.28;;
35110;SDS011;21290;50.158;8.658;2023-11-19T13:28:44;12.07;;;2.65;;
35110;SDS011;21290;50.158;8.658;2023-11-19T13:31:21;9.55;;;1.77;;
35110;SDS011;21290;50.158;8.658;2023-11-19T13:33:51;7.05;;;2.03;;
35110;SDS011;21290;50.158;8.658;2023-11-19T13:38:45;9.05;;;2.35;;
35110;SDS011;21290;50.158;8.658;2023-11-19T13:41:13;7.07;;;1.70;;
35110;SDS011;21290;50.158;8.658;2023-11-19T13:43:40;6.85;;;2.28;;
35110;SDS011;21290;50.158;8.658;2023-11-19T13:46:07;9.65;;;1.95;;
35110;SDS011;21290;50.158;8.658;2023-11-19T13:51:03;12.93;;;2.10;;
35110;SDS011;21290;50.158;8.658;2023-11-19T13:53:32;8.60;;;2.30;;
35110;SDS011;21290;50.158;8.658;2023-11-19T13:56:23;11.23;;;2.42;;
35110;SDS011;21290;50.158;8.658;2023-11-19T13:58:59;10.57;;;2.10;;
35110;SDS011;21290;50.158;8.658;2023-11-19T14:01:38;8.95;;;2.30;;
35110;SDS011;21290;50.158;8.658;2023-11-19T14:04:04;10.07;;;2.70;;
35110;SDS011;21290;50.158;8.658;2023-11-19T14:06:32;8.07;;;2.47;;
35110;SDS011;21290;50.158;8.658;2023-11-19T14:08:59;8.23;;;1.88;;
35110;SDS011;21290;50.158;8.658;2023-11-19T14:11:26;14.05;;;2.55;;
35110;SDS011;21290;50.158;8.658;2023-11-19T14:13:53;10.75;;;2.05;;
35110;SDS011;21290;50.158;8.658;2023-11-19T14:16:21;12.52;;;2.50;;
35110;SDS011;21290;50.158;8.658;2023-11-19T14:18:48;12.48;;;1.77;;
35110;SDS011;21290;50.158;8.658;2023-11-19T14:21:15;12.50;;;2.00;;
35110;SDS011;21290;50.158;8.658;2023-11-19T14:23:42;10.27;;;2.35;;
35110;SDS011;21290;50.158;8.658;2023-11-19T14:26:09;9.52;;;1.70;;
35110;SDS011;21290;50.158;8.658;2023-11-19T14:28:36;12.77;;;2.10;;
35110;SDS011;21290;50.158;8.658;2023-11-19T14:31:21;8.43;;;2.17;;
35110;SDS011;21290;50.158;8.658;2023-11-19T14:33:47;7.55;;;1.73;;
35110;SDS011;21290;50.158;8.658;2023-11-19T14:36:15;14.73;;;2.15;;
35110;SDS011;21290;50.158;8.658;2023-11-19T14:38:42;6.65;;;2.10;;
35110;SDS011;21290;50.158;8.658;2023-11-19T14:41:08;9.27;;;1.90;;
35110;SDS011;21290;50.158;8.658;2023-11-19T14:43:35;12.18;;;2.15;;
35110;SDS011;21290;50.158;8.658;2023-11-19T14:46:02;6.10;;;1.77;;
35110;SDS011;21290;50.158;8.658;2023-11-19T14:48:29;10.35;;;2.03;;
35110;SDS011;21290;50.158;8.658;2023-11-19T14:50:56;8.77;;;2.42;;
35110;SDS011;21290;50.158;8.658;2023-11-19T14:53:23;8.07;;;2.00;;
35110;SDS011;21290;50.158;8.658;2023-11-19T14:55:49;8.73;;;2.17;;
35110;SDS011;21290;50.158;8.658;2023-11-19T14:58:16;13.68;;;2.35;;
35110;SDS011;21290;50.158;8.658;2023-11-19T15:00:43;17.73;;;2.63;;
35110;SDS011;21290;50.158;8.658;2023-11-19T15:03:11;11.65;;;1.77;;
35110;SDS011;21290;50.158;8.658;2023-11-19T15:05:38;9.18;;;2.03;;
35110;SDS011;21290;50.158;8.658;2023-11-19T15:08:05;12.98;;;2.40;;
35110;SDS011;21290;50.158;8.658;2023-11-19T15:10:31;9.85;;;2.42;;
35110;SDS011;21290;50.158;8.658;2023-11-19T15:12:58;10.00;;;2.40;;